createdAt,value
2018-02-19T00:00:09.739Z,37.40
2018-02-19T00:01:10.201Z,37.39
2018-02-19T00:02:10.673Z,37.40
2018-02-19T00:03:11.143Z,37.40
2018-02-19T00:04:11.607Z,37.42
2018-02-19T00:05:12.075Z,37.42
2018-02-19T00:06:12.541Z,37.42
2018-02-19T00:07:13.008Z,37.40
2018-02-19T00:08:13.469Z,37.42
2018-02-19T00:09:13.942Z,37.38
2018-02-19T00:10:14.408Z,37.34
2018-02-19T00:11:14.874Z,37.36
2018-02-19T00:12:15.337Z,37.38
2018-02-19T00:13:15.811Z,37.38
2018-02-19T00:14:16.277Z,37.39
2018-02-19T00:15:16.742Z,37.37
2018-02-19T00:16:17.210Z,37.36
2018-02-19T00:17:17.730Z,37.36
2018-02-19T00:18:18.144Z,37.38
2018-02-19T00:19:18.606Z,37.37
2018-02-19T00:20:19.077Z,37.36
2018-02-19T00:21:19.544Z,37.38
2018-02-19T00:22:20.012Z,37.38
2018-02-19T00:23:20.473Z,37.38
2018-02-19T00:24:20.944Z,37.35
2018-02-19T00:25:21.412Z,37.33
2018-02-19T00:26:21.878Z,37.32
2018-02-19T00:27:22.396Z,37.35
2018-02-19T00:28:22.812Z,37.37
2018-02-19T00:29:23.279Z,37.38
2018-02-19T00:30:23.740Z,37.35
2018-02-19T00:31:24.214Z,37.36
2018-02-19T00:32:24.682Z,37.36
2018-02-19T00:33:25.145Z,37.33
2018-02-19T00:34:25.607Z,37.36
2018-02-19T00:35:26.078Z,37.34
2018-02-19T00:36:26.546Z,37.35
2018-02-19T00:37:27.063Z,37.37
2018-02-19T00:38:27.480Z,37.40
2018-02-19T00:39:27.946Z,37.36
2018-02-19T00:40:28.412Z,37.32
2018-02-19T00:41:28.874Z,37.32
2018-02-19T00:42:29.397Z,37.32
2018-02-19T00:43:29.812Z,37.33
2018-02-19T00:44:30.280Z,37.30
2018-02-19T00:45:30.745Z,37.31
2018-02-19T00:46:31.212Z,37.33
2018-02-19T00:47:31.680Z,37.34
2018-02-19T00:48:32.145Z,37.36
2018-02-19T00:49:32.613Z,37.37
2018-02-19T00:50:33.080Z,37.38
2018-02-19T00:51:33.547Z,37.40
2018-02-19T00:52:34.007Z,37.42
2018-02-19T00:54:34.945Z,37.38
2018-02-19T00:55:35.410Z,37.36
2018-02-19T00:56:35.879Z,37.38
2018-02-19T00:57:36.397Z,37.37
2018-02-19T00:58:36.812Z,37.35
2018-02-19T00:59:37.275Z,37.36
2018-02-19T01:00:37.744Z,37.39
2018-02-19T01:02:38.678Z,37.42
2018-02-19T01:03:39.139Z,37.40
2018-02-19T01:04:39.611Z,37.39
2018-02-19T01:05:40.077Z,37.40
2018-02-19T01:07:41.061Z,37.39
2018-02-19T01:08:41.475Z,37.38
2018-02-19T01:09:41.943Z,37.38
2018-02-19T01:10:42.405Z,37.38
2018-02-19T01:11:42.876Z,37.34
2018-02-19T01:12:43.394Z,37.32
2018-02-19T01:13:43.809Z,37.32
2018-02-19T01:14:44.268Z,37.26
2018-02-19T01:15:44.745Z,37.25
2018-02-19T01:16:45.206Z,37.29
2018-02-19T01:18:46.141Z,37.34
2018-02-19T01:19:46.606Z,37.31
2018-02-19T01:20:47.073Z,37.33
2018-02-19T01:21:47.539Z,37.34
2018-02-19T01:22:48.007Z,37.33
2018-02-19T01:23:48.473Z,37.34
2018-02-19T01:24:48.937Z,37.35
2018-02-19T01:25:49.400Z,37.35
2018-02-19T01:26:49.874Z,37.35
2018-02-19T01:27:50.336Z,37.37
2018-02-19T01:28:50.802Z,37.37
2018-02-19T01:29:51.271Z,37.36
2018-02-19T01:30:51.736Z,37.36
2018-02-19T01:31:52.201Z,37.40
2018-02-19T01:32:52.713Z,37.41
2018-02-19T01:33:53.135Z,37.43
2018-02-19T01:34:53.600Z,37.43
2018-02-19T01:35:54.065Z,37.44
2018-02-19T01:36:54.530Z,37.45
2018-02-19T01:38:06.680Z,37.48
2018-02-19T01:38:55.464Z,37.50
2018-02-19T01:39:55.931Z,37.54
2018-02-19T01:40:56.398Z,37.56
2018-02-19T01:41:56.863Z,37.56
2018-02-19T01:43:57.788Z,37.60
2018-02-19T01:44:58.262Z,37.61
2018-02-19T01:47:59.658Z,37.63
2018-02-19T01:49:00.126Z,37.62
2018-02-19T01:50:00.590Z,37.61
2018-02-19T01:52:01.525Z,37.65
2018-02-19T01:53:01.990Z,37.66
2018-02-19T01:54:02.456Z,37.65
2018-02-19T01:55:02.917Z,37.66
2018-02-19T01:56:03.389Z,37.67
2018-02-19T01:57:03.855Z,37.66
2018-02-19T01:58:04.369Z,37.67
2018-02-19T01:59:04.786Z,37.67
2018-02-19T02:00:05.252Z,37.68
2018-02-19T02:01:05.718Z,37.66
2018-02-19T02:02:06.178Z,37.63
2018-02-19T02:03:06.703Z,37.62
2018-02-19T02:04:07.114Z,37.57
2018-02-19T02:05:07.582Z,37.53
2018-02-19T02:06:08.044Z,37.55
2018-02-19T02:07:08.515Z,37.57
2018-02-19T02:08:08.980Z,37.47
2018-02-19T02:09:09.447Z,37.50
2018-02-19T02:10:09.912Z,37.49
2018-02-19T02:11:10.378Z,37.46
2018-02-19T02:12:10.845Z,37.41
2018-02-19T02:13:11.356Z,37.40
2018-02-19T02:14:11.778Z,37.39
2018-02-19T02:16:12.706Z,37.39
2018-02-19T02:17:13.171Z,37.36
2018-02-19T02:19:14.109Z,37.32
2018-02-19T02:20:14.572Z,37.23
2018-02-19T02:21:15.091Z,37.14
2018-02-19T02:22:15.505Z,37.19
2018-02-19T02:23:15.972Z,37.22
2018-02-19T02:24:16.430Z,37.20
2018-02-19T02:25:16.904Z,37.20
2018-02-19T02:26:17.367Z,37.19
2018-02-19T02:27:17.836Z,37.18
2018-02-19T02:28:18.344Z,37.20
2018-02-19T02:29:18.766Z,37.21
2018-02-19T02:30:19.232Z,37.19
2018-02-19T02:31:19.697Z,37.18
2018-02-19T02:32:20.163Z,37.18
2018-02-19T02:33:20.629Z,37.17
2018-02-19T02:34:21.099Z,37.17
2018-02-19T02:35:21.555Z,37.18
2018-02-19T02:36:22.030Z,37.18
2018-02-19T02:37:22.494Z,37.15
2018-02-19T02:38:23.010Z,37.17
2018-02-19T02:39:23.426Z,37.17
2018-02-19T02:40:23.890Z,37.16
2018-02-19T02:41:24.357Z,37.13
2018-02-19T02:42:24.822Z,37.08
2018-02-19T02:43:25.340Z,37.08
2018-02-19T02:44:25.754Z,37.09
2018-02-19T02:45:26.220Z,37.07
2018-02-19T02:46:26.683Z,37.05
2018-02-19T02:47:27.152Z,37.04
2018-02-19T02:48:27.617Z,37.05
2018-02-19T02:49:28.098Z,37.08
2018-02-19T02:50:28.549Z,37.05
2018-02-19T02:51:29.015Z,37.03
2018-02-19T02:52:29.480Z,37.06
2018-02-19T02:53:29.946Z,37.06
2018-02-19T02:54:30.411Z,37.09
2018-02-19T02:55:30.879Z,37.11
2018-02-19T02:56:31.343Z,37.12
2018-02-19T02:57:31.804Z,37.11
2018-02-19T02:58:32.277Z,37.12
2018-02-19T03:00:33.213Z,37.13
2018-02-19T03:01:33.673Z,37.13
2018-02-19T03:02:34.142Z,37.14
2018-02-19T03:03:34.605Z,37.16
2018-02-19T03:04:35.064Z,37.17
2018-02-19T03:06:36.004Z,37.19
2018-02-19T03:07:36.468Z,37.20
2018-02-19T03:08:36.978Z,37.17
2018-02-19T03:09:37.397Z,37.19
2018-02-19T03:10:37.864Z,37.18
2018-02-19T03:11:38.330Z,37.20
2018-02-19T03:12:38.796Z,37.21
2018-02-19T03:13:39.261Z,37.22
2018-02-19T03:14:39.727Z,37.23
2018-02-19T03:15:40.186Z,37.23
2018-02-19T03:16:40.657Z,37.22
2018-02-19T03:17:41.125Z,37.25
2018-02-19T03:18:41.590Z,37.25
2018-02-19T03:19:42.049Z,37.26
2018-02-19T03:20:42.519Z,37.27
2018-02-19T03:21:42.988Z,37.28
2018-02-19T03:22:43.452Z,37.29
2018-02-19T03:23:43.954Z,37.29
2018-02-19T03:24:44.382Z,37.29
2018-02-19T03:26:45.310Z,37.27
2018-02-19T03:27:45.780Z,37.28
2018-02-19T03:28:46.246Z,37.26
2018-02-19T03:30:47.172Z,37.30
2018-02-19T03:31:47.643Z,37.31
2018-02-19T03:32:48.106Z,37.33
2018-02-19T03:33:48.624Z,37.34
2018-02-19T03:34:49.040Z,37.31
2018-02-19T03:35:49.504Z,37.38
2018-02-19T03:36:49.969Z,37.41
2018-02-19T03:37:50.432Z,37.38
2018-02-19T03:38:50.901Z,37.39
2018-02-19T03:39:51.372Z,37.40
2018-02-19T03:40:51.833Z,37.41
2018-02-19T03:41:52.304Z,37.40
2018-02-19T03:42:52.763Z,37.42
2018-02-19T03:43:53.230Z,37.42
2018-02-19T03:44:53.693Z,37.40
2018-02-19T03:46:54.626Z,37.40
2018-02-19T03:47:55.090Z,37.40
2018-02-19T03:48:55.601Z,37.45
2018-02-19T03:49:56.022Z,37.44
2018-02-19T03:51:56.952Z,37.46
2018-02-19T03:52:57.416Z,37.43
2018-02-19T03:53:57.882Z,37.45
2018-02-19T03:54:58.350Z,37.42
2018-02-19T03:55:58.812Z,37.41
2018-02-19T03:56:59.279Z,37.41
2018-02-19T03:57:59.745Z,37.40
2018-02-19T03:59:00.212Z,37.40
2018-02-19T04:00:00.673Z,37.39
2018-02-19T04:01:01.142Z,37.40
2018-02-19T04:03:02.073Z,37.40
2018-02-19T04:04:02.541Z,37.39
2018-02-19T04:05:03.004Z,37.39
2018-02-19T04:06:03.470Z,37.34
2018-02-19T04:07:03.934Z,37.33
2018-02-19T04:08:04.396Z,37.35
2018-02-19T04:09:04.866Z,37.36
2018-02-19T04:10:05.332Z,37.38
2018-02-19T04:11:05.797Z,37.40
2018-02-19T04:12:06.262Z,37.41
2018-02-19T04:13:06.727Z,37.41
2018-02-19T04:14:07.243Z,37.41
2018-02-19T04:15:07.658Z,37.41
2018-02-19T04:16:08.123Z,37.39
2018-02-19T04:17:08.591Z,37.37
2018-02-19T04:18:09.054Z,37.37
2018-02-19T04:19:09.515Z,37.36
2018-02-19T04:20:09.985Z,37.38
2018-02-19T04:21:10.450Z,37.35
2018-02-19T04:22:10.915Z,37.34
2018-02-19T04:23:11.382Z,37.30
2018-02-19T04:24:11.896Z,37.30
2018-02-19T04:25:12.312Z,37.29
2018-02-19T04:26:12.773Z,37.29
2018-02-19T04:27:13.238Z,37.31
2018-02-19T04:28:13.704Z,37.33
2018-02-19T04:29:14.166Z,37.34
2018-02-19T04:30:14.633Z,37.36
2018-02-19T04:31:15.100Z,37.36
2018-02-19T04:32:15.565Z,37.36
2018-02-19T04:33:16.029Z,37.37
2018-02-19T04:34:16.549Z,37.37
2018-02-19T04:35:16.961Z,37.37
2018-02-19T04:36:17.430Z,37.37
2018-02-19T04:37:17.896Z,37.39
2018-02-19T04:38:18.361Z,37.38
2018-02-19T04:40:30.827Z,37.42
2018-02-19T04:42:20.225Z,37.44
2018-02-19T04:44:21.161Z,37.45
2018-02-19T04:45:33.862Z,37.46
2018-02-19T04:46:22.085Z,37.45
2018-02-19T04:47:22.549Z,37.44
2018-02-19T04:48:23.012Z,37.45
2018-02-19T04:49:23.479Z,37.48
2018-02-19T04:50:23.946Z,37.48
2018-02-19T04:51:24.411Z,37.48
2018-02-19T04:52:24.874Z,37.54
2018-02-19T04:53:25.340Z,37.53
2018-02-19T04:54:25.801Z,37.55
2018-02-19T04:55:26.271Z,37.55
2018-02-19T04:56:26.738Z,37.56
2018-02-19T04:58:27.666Z,37.61
2018-02-19T04:59:28.128Z,37.64
2018-02-19T05:00:28.598Z,37.66
2018-02-19T05:01:29.063Z,37.69
2018-02-19T05:02:29.531Z,37.70
2018-02-19T05:04:30.460Z,37.70
2018-02-19T05:05:30.974Z,37.70
2018-02-19T05:06:31.384Z,37.67
2018-02-19T05:09:32.786Z,37.66
2018-02-19T05:10:33.296Z,37.67
2018-02-19T05:11:33.721Z,37.66
2018-02-19T05:12:34.181Z,37.69
2018-02-19T05:13:34.648Z,37.68
2018-02-19T05:14:35.110Z,37.69
2018-02-19T05:15:35.626Z,37.70
2018-02-19T05:16:36.041Z,37.72
2018-02-19T05:17:36.501Z,37.71
2018-02-19T05:18:36.971Z,37.69
2018-02-19T05:19:37.436Z,37.70
2018-02-19T05:20:37.903Z,37.72
2018-02-19T05:21:38.364Z,37.68
2018-02-19T05:22:38.831Z,37.69
2018-02-19T05:23:39.291Z,37.69
2018-02-19T05:24:39.761Z,37.70
2018-02-19T05:25:40.226Z,37.72
2018-02-19T05:26:40.690Z,37.75
2018-02-19T05:27:41.157Z,37.73
2018-02-19T05:28:41.620Z,37.72
2018-02-19T05:29:42.081Z,37.73
2018-02-19T05:30:53.884Z,37.75
2018-02-19T05:31:43.017Z,37.74
2018-02-19T05:33:43.940Z,37.78
2018-02-19T05:34:44.413Z,37.79
2018-02-19T05:35:44.930Z,37.78
2018-02-19T05:36:45.343Z,37.77
2018-02-19T05:37:45.806Z,37.75
2018-02-19T05:38:46.274Z,37.77
2018-02-19T05:40:47.258Z,37.79
2018-02-19T05:42:48.129Z,37.76
2018-02-19T05:43:48.598Z,37.75
2018-02-19T05:44:49.062Z,37.76
2018-02-19T05:45:49.575Z,37.77
2018-02-19T05:46:49.992Z,37.79
2018-02-19T05:47:50.457Z,37.80
2018-02-19T05:48:50.924Z,37.80
2018-02-19T05:49:51.384Z,37.81
2018-02-19T05:50:51.854Z,37.81
2018-02-19T05:51:52.319Z,37.81
2018-02-19T05:52:52.785Z,37.80
2018-02-19T05:54:53.713Z,37.80
2018-02-19T05:55:54.228Z,37.83
2018-02-19T05:56:54.645Z,37.83
2018-02-19T05:57:55.112Z,37.84
2018-02-19T05:58:55.574Z,37.84
2018-02-19T05:59:56.035Z,37.84
2018-02-19T06:00:56.557Z,37.89
2018-02-19T06:01:56.973Z,37.85
2018-02-19T06:02:57.435Z,37.83
2018-02-19T06:03:57.895Z,37.83
2018-02-19T06:04:58.367Z,37.82
2018-02-19T06:05:58.833Z,37.84
2018-02-19T06:06:59.300Z,37.81
2018-02-19T06:07:59.761Z,37.81
2018-02-19T06:09:00.227Z,37.80
2018-02-19T06:10:00.691Z,37.82
2018-02-19T06:11:01.203Z,37.82
2018-02-19T06:12:01.622Z,37.81
2018-02-19T06:13:02.086Z,37.81
2018-02-19T06:14:02.551Z,37.79
2018-02-19T06:15:03.016Z,37.75
2018-02-19T06:16:03.481Z,37.77
2018-02-19T06:17:03.947Z,37.78
2018-02-19T06:18:04.411Z,37.77
2018-02-19T06:19:04.876Z,37.79
2018-02-19T06:20:05.379Z,37.81
2018-02-19T06:21:05.807Z,37.82
2018-02-19T06:22:06.268Z,37.79
2018-02-19T06:23:06.738Z,37.79
2018-02-19T06:24:07.202Z,37.79
2018-02-19T06:25:07.673Z,37.81
2018-02-19T06:26:08.179Z,37.83
2018-02-19T06:27:08.600Z,37.85
2018-02-19T06:28:09.063Z,37.84
2018-02-19T06:29:09.530Z,37.88
2018-02-19T06:30:09.991Z,37.85
2018-02-19T06:31:10.509Z,37.87
2018-02-19T06:32:10.923Z,37.86
2018-02-19T06:33:11.389Z,37.89
2018-02-19T06:34:11.848Z,37.88
2018-02-19T06:35:12.319Z,37.91
2018-02-19T06:36:12.784Z,37.92
2018-02-19T06:37:13.250Z,37.90
2018-02-19T06:38:13.715Z,37.93
2018-02-19T06:39:14.180Z,37.94
2018-02-19T06:40:14.647Z,37.98
2018-02-19T06:41:15.107Z,37.99
2018-02-19T06:42:15.576Z,38.01
2018-02-19T06:43:16.043Z,38.03
2018-02-19T06:44:16.508Z,38.06
2018-02-19T06:45:16.969Z,38.06
2018-02-19T06:46:17.439Z,38.09
2018-02-19T06:47:17.904Z,38.10
2018-02-19T06:48:18.370Z,38.13
2018-02-19T06:49:18.837Z,38.13
2018-02-19T06:50:19.301Z,38.17
2018-02-19T06:51:19.767Z,38.18
2018-02-19T06:52:20.228Z,38.18
2018-02-19T06:54:21.213Z,38.18
2018-02-19T06:55:21.631Z,38.15
2018-02-19T06:57:22.564Z,38.16
2018-02-19T06:59:23.495Z,38.22
2018-02-19T07:00:23.960Z,38.22
2018-02-19T07:01:24.477Z,38.21
2018-02-19T07:02:24.899Z,38.23
2018-02-19T07:03:25.354Z,38.26
2018-02-19T07:04:25.826Z,38.24
2018-02-19T07:05:26.296Z,38.25
2018-02-19T07:06:26.807Z,38.23
2018-02-19T07:07:27.225Z,38.24
2018-02-19T07:08:27.694Z,38.23
2018-02-19T07:09:28.158Z,38.29
2018-02-19T07:10:28.629Z,38.31
2018-02-19T07:11:29.140Z,38.30
2018-02-19T07:12:29.555Z,38.32
2018-02-19T07:13:30.025Z,38.34
2018-02-19T07:14:30.503Z,38.32
2018-02-19T07:15:30.958Z,38.31
2018-02-19T07:16:43.061Z,38.28
2018-02-19T07:17:31.893Z,38.27
2018-02-19T07:18:32.358Z,38.24
2018-02-19T07:19:32.822Z,38.21
2018-02-19T07:20:33.294Z,38.20
2018-02-19T07:21:33.815Z,38.22
2018-02-19T07:22:34.226Z,38.23
2018-02-19T07:23:34.695Z,38.24
2018-02-19T07:24:35.165Z,38.24
2018-02-19T07:25:35.629Z,38.22
2018-02-19T07:26:48.030Z,38.17
2018-02-19T07:27:36.567Z,38.14
2018-02-19T07:28:37.030Z,38.14
2018-02-19T07:29:37.502Z,38.13
2018-02-19T07:30:37.967Z,38.13
2018-02-19T07:31:38.487Z,38.11
2018-02-19T07:32:38.898Z,38.10
2018-02-19T07:33:39.372Z,38.11
2018-02-19T07:34:39.840Z,38.09
2018-02-19T07:35:40.310Z,38.09
2018-02-19T07:36:40.778Z,38.06
2018-02-19T07:37:41.245Z,38.04
2018-02-19T07:38:41.714Z,38.00
2018-02-19T07:39:42.175Z,37.99
2018-02-19T07:40:42.651Z,37.96
2018-02-19T07:41:55.056Z,37.92
2018-02-19T07:42:43.584Z,37.89
2018-02-19T07:44:44.522Z,37.82
2018-02-19T07:45:44.990Z,37.80
2018-02-19T07:47:45.929Z,37.72
2018-02-19T07:48:46.394Z,37.67
2018-02-19T07:50:47.335Z,37.64
2018-02-19T07:51:47.855Z,37.61
2018-02-19T07:52:48.274Z,37.59
2018-02-19T07:53:48.746Z,37.55
2018-02-19T07:54:49.207Z,37.51
2018-02-19T07:55:49.684Z,37.48
2018-02-19T07:56:50.203Z,37.46
2018-02-19T07:57:50.622Z,37.48
2018-02-19T07:58:51.090Z,37.46
2018-02-19T07:59:51.563Z,37.50
2018-02-19T08:00:52.031Z,37.54
2018-02-19T08:01:52.497Z,37.59
2018-02-19T08:02:52.968Z,37.62
2018-02-19T08:03:53.443Z,37.63
2018-02-19T08:04:53.909Z,37.61
2018-02-19T08:05:54.378Z,37.61
2018-02-19T08:06:54.848Z,37.62
2018-02-19T08:07:55.314Z,37.59
2018-02-19T08:08:55.789Z,37.60
2018-02-19T08:09:56.260Z,37.59
2018-02-19T08:10:56.732Z,37.59
2018-02-19T08:11:57.251Z,37.60
2018-02-19T08:12:57.672Z,37.60
2018-02-19T08:13:58.142Z,37.61
2018-02-19T08:14:58.608Z,37.61
2018-02-19T08:15:59.086Z,37.63
2018-02-19T08:16:59.606Z,37.64
2018-02-19T08:18:00.027Z,37.65
2018-02-19T08:20:00.966Z,37.69
2018-02-19T08:21:01.441Z,37.73
2018-02-19T08:22:01.961Z,37.74
2018-02-19T08:23:02.383Z,37.78
2018-02-19T08:24:02.853Z,37.78
2018-02-19T08:25:03.322Z,37.79
2018-02-19T08:26:03.791Z,37.80
2018-02-19T08:27:04.318Z,37.83
2018-02-19T08:28:04.739Z,37.86
2018-02-19T08:29:05.213Z,37.88
2018-02-19T08:30:05.681Z,37.93
2018-02-19T08:31:06.154Z,37.94
2018-02-19T08:32:06.625Z,37.95
2018-02-19T08:33:07.095Z,37.96
2018-02-19T08:34:07.570Z,37.98
2018-02-19T08:35:08.041Z,38.01
2018-02-19T08:37:08.980Z,38.06
2018-02-19T08:38:09.459Z,38.08
2018-02-19T08:39:09.928Z,38.09
2018-02-19T08:40:10.402Z,38.09
2018-02-19T08:41:10.876Z,38.10
2018-02-19T08:42:11.399Z,38.11
2018-02-19T08:43:11.821Z,38.12
2018-02-19T08:44:12.294Z,38.11
2018-02-19T08:45:12.776Z,38.14
2018-02-19T08:46:13.234Z,38.14
2018-02-19T08:47:13.713Z,38.16
2018-02-19T08:48:14.185Z,38.17
2018-02-19T08:49:14.654Z,38.20
2018-02-19T08:50:15.126Z,38.21
2018-02-19T08:51:15.602Z,38.22
2018-02-19T08:52:16.078Z,38.25
2018-02-19T08:53:16.563Z,38.29
2018-02-19T08:54:17.024Z,38.30
2018-02-19T08:55:17.497Z,38.34
2018-02-19T08:56:17.968Z,38.39
2018-02-19T08:57:18.445Z,38.43
2018-02-19T08:58:18.915Z,38.47
2018-02-19T08:59:19.385Z,38.50
2018-02-19T09:00:19.864Z,38.55
2018-02-19T09:03:21.336Z,38.73
2018-02-19T09:04:21.758Z,38.81
2018-02-19T09:05:22.234Z,38.89
2018-02-19T09:06:22.706Z,38.96
2018-02-19T09:07:23.175Z,39.01
2018-02-19T09:08:23.656Z,39.06
2018-02-19T09:09:24.130Z,39.12
2018-02-19T09:10:24.604Z,39.15
2018-02-19T09:12:25.551Z,39.25
2018-02-19T09:13:26.076Z,39.31
2018-02-19T09:15:26.974Z,39.35
2018-02-19T09:16:27.449Z,39.37
2018-02-19T09:17:27.972Z,39.43
2018-02-19T09:18:28.444Z,39.49
2018-02-19T09:19:28.871Z,39.50
2018-02-19T09:20:29.347Z,39.56
2018-02-19T09:21:29.820Z,39.54
2018-02-19T09:22:30.296Z,39.56
2018-02-19T09:23:30.770Z,39.55
2018-02-19T09:24:31.259Z,39.55
2018-02-19T09:25:31.714Z,39.57
2018-02-19T09:26:32.196Z,39.62
2018-02-19T09:27:32.669Z,39.65
2018-02-19T09:29:33.663Z,39.70
2018-02-19T09:30:34.095Z,39.72
2018-02-19T09:31:34.567Z,39.77
2018-02-19T09:32:35.045Z,39.82
2018-02-19T09:33:35.517Z,39.82
2018-02-19T09:34:36.039Z,39.81
2018-02-19T09:35:36.466Z,39.84
2018-02-19T09:36:36.943Z,39.87
2018-02-19T09:37:37.416Z,39.79
2018-02-19T09:38:37.893Z,39.79
2018-02-19T09:39:38.370Z,39.75
2018-02-19T09:40:38.842Z,39.77
2018-02-19T09:41:39.318Z,39.73
2018-02-19T09:42:39.787Z,39.71
2018-02-19T09:44:40.793Z,39.65
2018-02-19T09:45:41.220Z,39.66
2018-02-19T09:46:41.691Z,39.82
2018-02-19T09:47:42.168Z,39.91
2018-02-19T09:48:42.646Z,39.97
2018-02-19T09:49:43.174Z,39.98
2018-02-19T09:51:44.072Z,39.94
2018-02-19T09:52:44.548Z,39.94
2018-02-19T09:53:45.018Z,40.00
2018-02-19T09:54:45.550Z,40.03
2018-02-19T09:55:45.975Z,40.07
2018-02-19T09:56:46.450Z,40.21
2018-02-19T09:57:46.924Z,40.28
2018-02-19T09:58:47.402Z,40.41
2018-02-19T09:59:47.931Z,40.59
2018-02-19T10:00:48.353Z,40.75
2018-02-19T10:01:48.829Z,40.94
2018-02-19T10:02:49.302Z,41.12
2018-02-19T10:03:49.779Z,41.34
2018-02-19T10:05:02.137Z,41.50
2018-02-19T10:05:50.727Z,41.63
2018-02-19T10:06:51.202Z,41.77
2018-02-19T10:07:51.676Z,41.97
2018-02-19T10:08:52.150Z,42.14
2018-02-19T10:09:52.676Z,42.34
2018-02-19T10:10:53.096Z,42.53
2018-02-19T10:11:53.572Z,42.74
2018-02-19T10:12:54.045Z,43.04
2018-02-19T10:13:54.519Z,43.35
2018-02-19T10:14:55.042Z,43.64
2018-02-19T10:15:55.462Z,43.91
2018-02-19T10:16:55.936Z,44.15
2018-02-19T10:17:56.409Z,44.40
2018-02-19T10:18:56.880Z,44.61
2018-02-19T10:19:57.354Z,44.83
2018-02-19T10:20:57.823Z,44.95
2018-02-19T10:21:58.302Z,45.07
2018-02-19T10:22:58.769Z,45.13
2018-02-19T10:23:59.233Z,45.22
2018-02-19T10:25:11.191Z,45.25
2018-02-19T10:26:00.189Z,45.26
2018-02-19T10:28:01.126Z,45.29
2018-02-19T10:29:01.600Z,45.31
2018-02-19T10:30:02.071Z,45.29
2018-02-19T10:31:02.538Z,45.28
2018-02-19T10:32:03.013Z,45.22
2018-02-19T10:33:03.487Z,45.24
2018-02-19T10:34:03.958Z,45.22
2018-02-19T10:35:04.426Z,45.20
2018-02-19T10:36:04.901Z,45.14
2018-02-19T10:37:05.371Z,45.12
2018-02-19T10:38:05.850Z,45.12
2018-02-19T10:39:06.321Z,45.08
2018-02-19T10:40:06.789Z,45.01
2018-02-19T10:41:07.262Z,44.99
2018-02-19T10:42:07.729Z,44.96
2018-02-19T10:43:08.206Z,44.88
2018-02-19T10:44:08.678Z,44.86
2018-02-19T10:45:09.203Z,44.80
2018-02-19T10:46:09.620Z,44.79
2018-02-19T10:47:24.357Z,44.83
2018-02-19T10:48:24.834Z,44.81
2018-02-19T10:49:25.302Z,44.79
2018-02-19T10:50:25.776Z,44.79
2018-02-19T10:51:26.243Z,44.71
2018-02-19T10:52:26.722Z,44.66
2018-02-19T10:53:27.197Z,44.58
2018-02-19T10:54:27.672Z,44.48
2018-02-19T10:55:28.147Z,44.39
2018-02-19T10:56:28.619Z,44.34
2018-02-19T10:57:29.094Z,44.31
2018-02-19T10:58:29.769Z,44.18
2018-02-19T10:59:30.046Z,44.10
2018-02-19T11:00:30.568Z,44.00
2018-02-19T11:01:30.987Z,43.85
2018-02-19T11:02:31.467Z,43.70
2018-02-19T11:03:31.941Z,43.59
2018-02-19T11:04:32.417Z,43.50
2018-02-19T11:05:44.276Z,43.37
2018-02-19T11:06:33.368Z,43.25
2018-02-19T11:08:34.319Z,43.01
2018-02-19T11:09:34.797Z,42.92
2018-02-19T11:11:35.747Z,42.79
2018-02-19T11:12:36.221Z,42.64
2018-02-19T11:13:36.698Z,42.54
2018-02-19T11:14:37.175Z,42.51
2018-02-19T11:15:37.650Z,42.56
2018-02-19T11:16:38.178Z,42.65
2018-02-19T11:17:38.602Z,42.75
2018-02-19T11:18:39.079Z,42.88
2018-02-19T11:20:40.032Z,43.38
2018-02-19T11:21:40.558Z,43.68
2018-02-19T11:22:40.984Z,43.90
2018-02-19T11:23:41.459Z,44.11
2018-02-19T11:24:41.929Z,44.39
2018-02-19T11:26:42.936Z,44.86
2018-02-19T11:27:43.360Z,45.11
2018-02-19T11:28:43.835Z,45.36
2018-02-19T11:29:44.310Z,45.60
2018-02-19T11:30:44.785Z,45.85
2018-02-19T11:31:45.308Z,46.07
2018-02-19T11:32:45.736Z,46.29
2018-02-19T11:33:46.206Z,46.51
2018-02-19T11:34:46.681Z,46.74
2018-02-19T11:35:47.152Z,46.96
2018-02-19T11:36:47.627Z,47.16
2018-02-19T11:38:55.316Z,47.73
2018-02-19T11:39:49.044Z,48.02
2018-02-19T11:40:49.512Z,48.37
2018-02-19T11:41:49.991Z,48.59
2018-02-19T11:42:50.464Z,48.80
2018-02-19T11:43:50.930Z,48.91
2018-02-19T11:44:51.406Z,49.01
2018-02-19T11:45:51.879Z,49.06
2018-02-19T11:46:52.352Z,49.08
2018-02-19T11:47:52.820Z,48.99
2018-02-19T11:48:53.294Z,48.95
2018-02-19T11:49:53.766Z,48.86
2018-02-19T11:50:54.239Z,48.79
2018-02-19T11:51:54.761Z,48.69
2018-02-19T11:52:55.201Z,48.60
2018-02-19T11:53:55.656Z,48.49
2018-02-19T11:54:56.121Z,48.41
2018-02-19T11:55:56.597Z,48.30
2018-02-19T11:56:57.120Z,48.19
2018-02-19T11:57:57.544Z,48.05
2018-02-19T11:58:58.017Z,47.89
2018-02-19T11:59:58.522Z,47.75
2018-02-19T12:00:58.957Z,47.59
2018-02-19T12:01:59.488Z,47.43
2018-02-19T12:02:59.907Z,47.32
2018-02-19T12:04:00.377Z,47.17
2018-02-19T12:05:00.850Z,47.05
2018-02-19T12:06:01.352Z,46.89
2018-02-19T12:07:01.799Z,46.78
2018-02-19T12:08:02.271Z,46.67
2018-02-19T12:09:02.744Z,46.56
2018-02-19T12:10:03.219Z,46.45
2018-02-19T12:11:03.687Z,46.33
2018-02-19T12:12:04.166Z,46.21
2018-02-19T12:13:04.639Z,46.08
2018-02-19T12:14:05.114Z,45.93
2018-02-19T12:15:05.588Z,45.76
2018-02-19T12:16:06.060Z,45.60
2018-02-19T12:17:06.536Z,45.48
2018-02-19T12:18:07.006Z,45.44
2018-02-19T12:19:07.487Z,45.36
2018-02-19T12:20:07.961Z,45.28
2018-02-19T12:21:08.437Z,45.17
2018-02-19T12:22:08.906Z,45.07
2018-02-19T12:23:09.384Z,44.99
2018-02-19T12:24:09.860Z,44.88
2018-02-19T12:25:10.341Z,44.75
2018-02-19T12:26:10.812Z,44.64
2018-02-19T12:27:11.291Z,44.45
2018-02-19T12:28:11.762Z,44.26
2018-02-19T12:29:12.234Z,44.09
2018-02-19T12:30:12.716Z,44.03
2018-02-19T12:31:13.192Z,44.06
2018-02-19T12:32:13.666Z,44.17
2018-02-19T12:33:14.143Z,44.27
2018-02-19T12:35:15.094Z,44.55
2018-02-19T12:36:15.571Z,44.73
2018-02-19T12:37:16.097Z,44.92
2018-02-19T12:39:16.996Z,45.32
2018-02-19T12:40:17.471Z,45.52
2018-02-19T12:41:17.947Z,45.70
2018-02-19T12:42:18.416Z,45.85
2018-02-19T12:43:18.900Z,46.01
2018-02-19T12:44:19.372Z,46.20
2018-02-19T12:46:20.315Z,46.54
2018-02-19T12:47:20.844Z,46.67
2018-02-19T12:48:21.268Z,46.79
2018-02-19T12:49:21.742Z,46.91
2018-02-19T12:50:22.216Z,47.01
2018-02-19T12:51:22.689Z,47.15
2018-02-19T12:52:23.212Z,47.29
2018-02-19T12:53:23.631Z,47.45
2018-02-19T12:55:24.582Z,47.85
2018-02-19T12:56:25.051Z,48.04
2018-02-19T12:57:25.526Z,48.17
2018-02-19T12:58:25.997Z,48.25
2018-02-19T12:59:26.472Z,48.35
2018-02-19T13:01:27.413Z,48.45
2018-02-19T13:02:27.885Z,48.43
2018-02-19T13:03:28.360Z,48.42
2018-02-19T13:04:28.864Z,48.36
2018-02-19T13:05:29.299Z,48.30
2018-02-19T13:06:29.772Z,48.21
2018-02-19T13:07:30.294Z,48.04
2018-02-19T13:08:30.714Z,47.83
2018-02-19T13:09:31.187Z,47.57
2018-02-19T13:10:31.654Z,47.32
2018-02-19T13:11:32.131Z,47.04
2018-02-19T13:12:32.651Z,46.80
2018-02-19T13:13:33.076Z,46.58
2018-02-19T13:14:33.546Z,46.40
2018-02-19T13:15:34.221Z,46.34
2018-02-19T13:18:35.436Z,45.80
2018-02-19T13:19:35.910Z,45.43
2018-02-19T13:20:36.381Z,45.28
2018-02-19T13:21:36.848Z,45.07
2018-02-19T13:23:37.801Z,44.60
2018-02-19T13:24:38.273Z,44.54
2018-02-19T13:25:38.747Z,44.48
2018-02-19T13:26:39.221Z,44.16
2018-02-19T13:27:39.694Z,43.94
2018-02-19T13:28:40.169Z,43.89
2018-02-19T13:29:40.641Z,43.89
2018-02-19T13:30:41.115Z,43.89
2018-02-19T13:31:41.591Z,43.63
2018-02-19T13:32:42.065Z,43.33
2018-02-19T13:33:42.539Z,43.20
2018-02-19T13:34:43.015Z,43.14
2018-02-19T13:35:43.492Z,43.02
2018-02-19T13:36:43.963Z,42.97
2018-02-19T13:37:44.487Z,42.94
2018-02-19T13:38:44.912Z,42.84
2018-02-19T13:39:45.388Z,42.71
2018-02-19T13:40:45.858Z,42.58
2018-02-19T13:41:46.339Z,42.30
2018-02-19T13:42:46.810Z,42.18
2018-02-19T13:43:47.292Z,42.10
2018-02-19T13:44:47.772Z,41.89
2018-02-19T13:45:48.243Z,41.76
2018-02-19T13:46:48.717Z,41.72
2018-02-19T13:47:49.194Z,41.72
2018-02-19T13:48:49.670Z,41.85
2018-02-19T13:49:50.139Z,41.98
2018-02-19T13:50:50.621Z,42.15
2018-02-19T13:51:51.096Z,42.26
2018-02-19T13:52:51.623Z,42.34
2018-02-19T13:53:52.042Z,42.40
2018-02-19T13:54:52.525Z,42.61
2018-02-19T13:55:53.000Z,42.80